sensor_id;sensor_type;location;lat;lon;timestamp;pressure;altitude;pressure_sealevel;temperature
68952;BMP180;56000;51.146;17.112;2023-02-21T00:01:03;99631.60;;;10.54
68952;BMP180;56000;51.146;17.112;2023-02-21T00:03:54;99625.60;;;10.50
68952;BMP180;56000;51.146;17.112;2023-02-21T00:06:46;99635.20;;;10.50
68952;BMP180;56000;51.146;17.112;2023-02-21T00:09:38;99634.40;;;10.50
68952;BMP180;56000;51.146;17.112;2023-02-21T00:12:29;99631.40;;;10.50
68952;BMP180;56000;51.146;17.112;2023-02-21T00:15:18;99637.00;;;10.50
68952;BMP180;56000;51.146;17.112;2023-02-21T00:18:08;99630.80;;;10.46
68952;BMP180;56000;51.146;17.112;2023-02-21T00:20:58;99625.20;;;10.40
68952;BMP180;56000;51.146;17.112;2023-02-21T00:23:47;99632.00;;;10.40
68952;BMP180;56000;51.146;17.112;2023-02-21T00:26:38;99628.00;;;10.40
68952;BMP180;56000;51.146;17.112;2023-02-21T00:29:28;99628.20;;;10.40
68952;BMP180;56000;51.146;17.112;2023-02-21T00:32:19;99621.40;;;10.36
68952;BMP180;56000;51.146;17.112;2023-02-21T00:35:09;99630.40;;;10.36
68952;BMP180;56000;51.146;17.112;2023-02-21T00:38:00;99622.60;;;10.30
68952;BMP180;56000;51.146;17.112;2023-02-21T00:40:50;99620.80;;;10.30
68952;BMP180;56000;51.146;17.112;2023-02-21T00:43:41;99625.40;;;10.30
68952;BMP180;56000;51.146;17.112;2023-02-21T00:46:30;99620.20;;;10.30
68952;BMP180;56000;51.146;17.112;2023-02-21T00:49:20;99617.20;;;10.30
68952;BMP180;56000;51.146;17.112;2023-02-21T00:52:11;99615.00;;;10.30
68952;BMP180;56000;51.146;17.112;2023-02-21T00:55:00;99617.00;;;10.32
68952;BMP180;56000;51.146;17.112;2023-02-21T00:57:50;99615.20;;;10.30
68952;BMP180;56000;51.146;17.112;2023-02-21T01:00:40;99615.20;;;10.30
68952;BMP180;56000;51.146;17.112;2023-02-21T01:03:29;99611.40;;;10.30
68952;BMP180;56000;51.146;17.112;2023-02-21T01:06:22;99615.80;;;10.30
68952;BMP180;56000;51.146;17.112;2023-02-21T01:09:12;99612.20;;;10.30
68952;BMP180;56000;51.146;17.112;2023-02-21T01:12:04;99613.80;;;10.30
68952;BMP180;56000;51.146;17.112;2023-02-21T01:14:54;99611.20;;;10.30
68952;BMP180;56000;51.146;17.112;2023-02-21T01:17:45;99602.40;;;10.26
68952;BMP180;56000;51.146;17.112;2023-02-21T01:20:35;99610.20;;;10.20
68952;BMP180;56000;51.146;17.112;2023-02-21T01:23:24;99611.40;;;10.20
68952;BMP180;56000;51.146;17.112;2023-02-21T01:26:15;99620.20;;;10.20
68952;BMP180;56000;51.146;17.112;2023-02-21T01:29:05;99616.80;;;10.20
68952;BMP180;56000;51.146;17.112;2023-02-21T01:31:56;99614.60;;;10.18
68952;BMP180;56000;51.146;17.112;2023-02-21T01:34:46;99609.80;;;10.14
68952;BMP180;56000;51.146;17.112;2023-02-21T01:37:37;99613.80;;;10.10
68952;BMP180;56000;51.146;17.112;2023-02-21T01:40:28;99623.00;;;10.10
68952;BMP180;56000;51.146;17.112;2023-02-21T01:43:19;99623.40;;;10.12
68952;BMP180;56000;51.146;17.112;2023-02-21T01:46:11;99612.40;;;10.10
68952;BMP180;56000;51.146;17.112;2023-02-21T01:49:06;99614.60;;;10.10
68952;BMP180;56000;51.146;17.112;2023-02-21T01:51:58;99612.20;;;10.10
68952;BMP180;56000;51.146;17.112;2023-02-21T01:54:53;99615.40;;;10.10
68952;BMP180;56000;51.146;17.112;2023-02-21T01:57:46;99609.60;;;10.10
68952;BMP180;56000;51.146;17.112;2023-02-21T02:00:36;99607.20;;;10.06
68952;BMP180;56000;51.146;17.112;2023-02-21T02:03:27;99604.20;;;10.00
68952;BMP180;56000;51.146;17.112;2023-02-21T02:06:18;99610.20;;;10.00
68952;BMP180;56000;51.146;17.112;2023-02-21T02:09:20;99601.00;;;10.00
68952;BMP180;56000;51.146;17.112;2023-02-21T02:12:34;99601.00;;;10.00
68952;BMP180;56000;51.146;17.112;2023-02-21T02:15:26;99592.60;;;9.90
68952;BMP180;56000;51.146;17.112;2023-02-21T02:18:33;99590.60;;;9.90
68952;BMP180;56000;51.146;17.112;2023-02-21T02:24:50;99583.40;;;9.88
68952;BMP180;56000;51.146;17.112;2023-02-21T02:27:50;99578.80;;;9.80
68952;BMP180;56000;51.146;17.112;2023-02-21T02:30:51;99579.60;;;9.80
68952;BMP180;56000;51.146;17.112;2023-02-21T02:34:01;99586.20;;;9.80
68952;BMP180;56000;51.146;17.112;2023-02-21T02:36:41;99586.80;;;9.80
68952;BMP180;56000;51.146;17.112;2023-02-21T02:39:23;99586.40;;;9.80
68952;BMP180;56000;51.146;17.112;2023-02-21T02:42:05;99587.60;;;9.80
68952;BMP180;56000;51.146;17.112;2023-02-21T02:44:45;99578.40;;;9.80
68952;BMP180;56000;51.146;17.112;2023-02-21T02:47:26;99577.20;;;9.80
68952;BMP180;56000;51.146;17.112;2023-02-21T02:50:01;99590.80;;;9.80
68952;BMP180;56000;51.146;17.112;2023-02-21T02:52:36;99582.80;;;9.80
68952;BMP180;56000;51.146;17.112;2023-02-21T02:55:33;99582.00;;;9.80
68952;BMP180;56000;51.146;17.112;2023-02-21T02:58:08;99580.60;;;9.80
68952;BMP180;56000;51.146;17.112;2023-02-21T03:00:49;99586.20;;;9.80
68952;BMP180;56000;51.146;17.112;2023-02-21T03:03:43;99583.80;;;9.80
68952;BMP180;56000;51.146;17.112;2023-02-21T03:06:27;99588.60;;;9.80
68952;BMP180;56000;51.146;17.112;2023-02-21T03:09:11;99582.40;;;9.80
68952;BMP180;56000;51.146;17.112;2023-02-21T03:11:53;99580.40;;;9.80
68952;BMP180;56000;51.146;17.112;2023-02-21T03:14:33;99584.60;;;9.78
68952;BMP180;56000;51.146;17.112;2023-02-21T03:17:10;99574.80;;;9.80
68952;BMP180;56000;51.146;17.112;2023-02-21T03:19:47;99574.60;;;9.80
68952;BMP180;56000;51.146;17.112;2023-02-21T03:22:25;99571.00;;;9.80
68952;BMP180;56000;51.146;17.112;2023-02-21T03:25:02;99577.40;;;9.80
68952;BMP180;56000;51.146;17.112;2023-02-21T03:27:37;99569.80;;;9.80
68952;BMP180;56000;51.146;17.112;2023-02-21T03:30:23;99578.20;;;9.80
68952;BMP180;56000;51.146;17.112;2023-02-21T03:32:57;99567.40;;;9.80
68952;BMP180;56000;51.146;17.112;2023-02-21T03:35:31;99579.80;;;9.80
68952;BMP180;56000;51.146;17.112;2023-02-21T03:38:05;99581.60;;;9.80
68952;BMP180;56000;51.146;17.112;2023-02-21T03:40:38;99574.60;;;9.80
68952;BMP180;56000;51.146;17.112;2023-02-21T03:43:11;99573.00;;;9.80
68952;BMP180;56000;51.146;17.112;2023-02-21T03:45:50;99569.00;;;9.80
68952;BMP180;56000;51.146;17.112;2023-02-21T03:48:23;99572.20;;;9.82
68952;BMP180;56000;51.146;17.112;2023-02-21T03:51:14;99585.80;;;9.84
68952;BMP180;56000;51.146;17.112;2023-02-21T03:53:47;99571.60;;;9.84
68952;BMP180;56000;51.146;17.112;2023-02-21T03:56:21;99576.40;;;9.84
68952;BMP180;56000;51.146;17.112;2023-02-21T03:59:18;99583.60;;;9.82
68952;BMP180;56000;51.146;17.112;2023-02-21T04:01:51;99579.80;;;9.80
68952;BMP180;56000;51.146;17.112;2023-02-21T04:04:25;99582.00;;;9.80
68952;BMP180;56000;51.146;17.112;2023-02-21T04:07:07;99579.60;;;9.80
68952;BMP180;56000;51.146;17.112;2023-02-21T04:09:41;99571.20;;;9.80
68952;BMP180;56000;51.146;17.112;2023-02-21T04:12:19;99584.80;;;9.80
68952;BMP180;56000;51.146;17.112;2023-02-21T04:14:52;99588.80;;;9.80
68952;BMP180;56000;51.146;17.112;2023-02-21T04:17:27;99575.20;;;9.86
68952;BMP180;56000;51.146;17.112;2023-02-21T04:20:01;99570.00;;;9.86
68952;BMP180;56000;51.146;17.112;2023-02-21T04:22:38;99570.40;;;9.80
68952;BMP180;56000;51.146;17.112;2023-02-21T04:25:13;99574.40;;;9.90
68952;BMP180;56000;51.146;17.112;2023-02-21T04:27:52;99573.40;;;9.90
68952;BMP180;56000;51.146;17.112;2023-02-21T04:30:25;99570.00;;;9.90
68952;BMP180;56000;51.146;17.112;2023-02-21T04:32:58;99566.60;;;9.90
68952;BMP180;56000;51.146;17.112;2023-02-21T04:35:31;99559.60;;;9.90
68952;BMP180;56000;51.146;17.112;2023-02-21T04:38:10;99567.80;;;9.90
68952;BMP180;56000;51.146;17.112;2023-02-21T04:40:43;99574.20;;;9.90
68952;BMP180;56000;51.146;17.112;2023-02-21T04:43:16;99567.00;;;9.98
68952;BMP180;56000;51.146;17.112;2023-02-21T04:45:51;99579.60;;;10.00
68952;BMP180;56000;51.146;17.112;2023-02-21T04:48:25;99575.40;;;10.00
68952;BMP180;56000;51.146;17.112;2023-02-21T04:50:58;99566.60;;;10.00
68952;BMP180;56000;51.146;17.112;2023-02-21T04:53:47;99570.00;;;10.00
68952;BMP180;56000;51.146;17.112;2023-02-21T04:56:23;99570.60;;;10.00
68952;BMP180;56000;51.146;17.112;2023-02-21T04:58:58;99570.80;;;10.00
68952;BMP180;56000;51.146;17.112;2023-02-21T05:01:32;99575.60;;;10.00
68952;BMP180;56000;51.146;17.112;2023-02-21T05:04:05;99580.20;;;10.00
68952;BMP180;56000;51.146;17.112;2023-02-21T05:06:39;99576.60;;;10.00
68952;BMP180;56000;51.146;17.112;2023-02-21T05:09:12;99583.40;;;9.90
68952;BMP180;56000;51.146;17.112;2023-02-21T05:11:45;99581.80;;;9.88
68952;BMP180;56000;51.146;17.112;2023-02-21T05:14:18;99576.60;;;9.80
68952;BMP180;56000;51.146;17.112;2023-02-21T05:16:51;99570.40;;;9.74
68952;BMP180;56000;51.146;17.112;2023-02-21T05:19:25;99578.00;;;9.70
68952;BMP180;56000;51.146;17.112;2023-02-21T05:22:01;99572.40;;;9.68
68952;BMP180;56000;51.146;17.112;2023-02-21T05:24:41;99580.60;;;9.60
68952;BMP180;56000;51.146;17.112;2023-02-21T05:27:14;99579.20;;;9.60
68952;BMP180;56000;51.146;17.112;2023-02-21T05:29:50;99579.40;;;9.50
68952;BMP180;56000;51.146;17.112;2023-02-21T05:32:24;99574.80;;;9.50
68952;BMP180;56000;51.146;17.112;2023-02-21T05:35:00;99580.40;;;9.50
68952;BMP180;56000;51.146;17.112;2023-02-21T05:37:33;99582.00;;;9.50
68952;BMP180;56000;51.146;17.112;2023-02-21T05:40:08;99581.60;;;9.48
68952;BMP180;56000;51.146;17.112;2023-02-21T05:42:42;99573.60;;;9.46
68952;BMP180;56000;51.146;17.112;2023-02-21T05:45:16;99567.40;;;9.50
68952;BMP180;56000;51.146;17.112;2023-02-21T05:47:50;99575.80;;;9.50
68952;BMP180;56000;51.146;17.112;2023-02-21T05:50:27;99577.40;;;9.50
68952;BMP180;56000;51.146;17.112;2023-02-21T05:53:00;99573.00;;;9.56
68952;BMP180;56000;51.146;17.112;2023-02-21T05:55:33;99582.60;;;9.60
68952;BMP180;56000;51.146;17.112;2023-02-21T05:58:07;99578.20;;;9.60
68952;BMP180;56000;51.146;17.112;2023-02-21T06:00:40;99586.60;;;9.60
68952;BMP180;56000;51.146;17.112;2023-02-21T06:03:13;99596.40;;;9.70
68952;BMP180;56000;51.146;17.112;2023-02-21T06:05:46;99598.60;;;9.70
68952;BMP180;56000;51.146;17.112;2023-02-21T06:08:19;99586.20;;;9.72
68952;BMP180;56000;51.146;17.112;2023-02-21T06:10:52;99593.80;;;9.80
68952;BMP180;56000;51.146;17.112;2023-02-21T06:13:25;99594.60;;;9.80
68952;BMP180;56000;51.146;17.112;2023-02-21T06:15:59;99595.80;;;9.90
68952;BMP180;56000;51.146;17.112;2023-02-21T06:18:32;99601.00;;;9.90
68952;BMP180;56000;51.146;17.112;2023-02-21T06:21:06;99605.00;;;9.98
68952;BMP180;56000;51.146;17.112;2023-02-21T06:23:39;99606.40;;;10.00
68952;BMP180;56000;51.146;17.112;2023-02-21T06:26:12;99602.80;;;10.02
68952;BMP180;56000;51.146;17.112;2023-02-21T06:28:46;99604.80;;;10.10
68952;BMP180;56000;51.146;17.112;2023-02-21T06:31:20;99613.40;;;10.10
68952;BMP180;56000;51.146;17.112;2023-02-21T06:33:53;99613.80;;;10.10
68952;BMP180;56000;51.146;17.112;2023-02-21T06:36:28;99621.40;;;10.10
68952;BMP180;56000;51.146;17.112;2023-02-21T06:39:02;99624.20;;;10.10
68952;BMP180;56000;51.146;17.112;2023-02-21T06:41:35;99633.40;;;10.10
68952;BMP180;56000;51.146;17.112;2023-02-21T06:44:08;99642.80;;;10.10
68952;BMP180;56000;51.146;17.112;2023-02-21T06:46:42;99626.00;;;10.10
68952;BMP180;56000;51.146;17.112;2023-02-21T06:49:15;99633.20;;;10.10
68952;BMP180;56000;51.146;17.112;2023-02-21T06:51:48;99650.60;;;10.10
68952;BMP180;56000;51.146;17.112;2023-02-21T06:54:21;99641.60;;;10.10
68952;BMP180;56000;51.146;17.112;2023-02-21T06:56:55;99636.00;;;10.10
68952;BMP180;56000;51.146;17.112;2023-02-21T06:59:30;99631.20;;;10.10
68952;BMP180;56000;51.146;17.112;2023-02-21T07:02:03;99633.40;;;10.10
68952;BMP180;56000;51.146;17.112;2023-02-21T07:04:36;99637.40;;;10.10
68952;BMP180;56000;51.146;17.112;2023-02-21T07:07:09;99629.60;;;10.18
68952;BMP180;56000;51.146;17.112;2023-02-21T07:09:42;99630.40;;;10.30
68952;BMP180;56000;51.146;17.112;2023-02-21T07:12:15;99629.20;;;10.30
68952;BMP180;56000;51.146;17.112;2023-02-21T07:14:48;99637.80;;;10.30
68952;BMP180;56000;51.146;17.112;2023-02-21T07:17:21;99646.60;;;10.34
68952;BMP180;56000;51.146;17.112;2023-02-21T07:19:54;99657.20;;;10.40
68952;BMP180;56000;51.146;17.112;2023-02-21T07:22:27;99654.20;;;10.40
68952;BMP180;56000;51.146;17.112;2023-02-21T07:25:00;99661.00;;;10.50
68952;BMP180;56000;51.146;17.112;2023-02-21T07:27:34;99663.00;;;10.60
68952;BMP180;56000;51.146;17.112;2023-02-21T07:30:09;99666.20;;;10.60
68952;BMP180;56000;51.146;17.112;2023-02-21T07:32:42;99662.60;;;10.70
68952;BMP180;56000;51.146;17.112;2023-02-21T07:35:14;99658.60;;;10.70
68952;BMP180;56000;51.146;17.112;2023-02-21T07:37:47;99662.60;;;10.70
68952;BMP180;56000;51.146;17.112;2023-02-21T07:40:21;99663.00;;;10.70
68952;BMP180;56000;51.146;17.112;2023-02-21T07:42:54;99674.80;;;10.70
68952;BMP180;56000;51.146;17.112;2023-02-21T07:45:27;99680.00;;;10.66
68952;BMP180;56000;51.146;17.112;2023-02-21T07:48:01;99687.80;;;10.58
68952;BMP180;56000;51.146;17.112;2023-02-21T07:50:34;99688.40;;;10.44
68952;BMP180;56000;51.146;17.112;2023-02-21T07:53:07;99699.40;;;10.40
68952;BMP180;56000;51.146;17.112;2023-02-21T07:55:41;99690.80;;;10.30
68952;BMP180;56000;51.146;17.112;2023-02-21T07:58:15;99687.00;;;10.30
68952;BMP180;56000;51.146;17.112;2023-02-21T08:00:51;99696.40;;;10.30
68952;BMP180;56000;51.146;17.112;2023-02-21T08:03:26;99711.20;;;10.30
68952;BMP180;56000;51.146;17.112;2023-02-21T08:05:59;99712.20;;;10.26
68952;BMP180;56000;51.146;17.112;2023-02-21T08:08:32;99707.80;;;10.20
68952;BMP180;56000;51.146;17.112;2023-02-21T08:11:06;99711.20;;;10.20
68952;BMP180;56000;51.146;17.112;2023-02-21T08:13:39;99706.60;;;10.20
68952;BMP180;56000;51.146;17.112;2023-02-21T08:16:12;99708.60;;;10.30
68952;BMP180;56000;51.146;17.112;2023-02-21T08:18:47;99710.20;;;10.30
68952;BMP180;56000;51.146;17.112;2023-02-21T08:21:21;99717.40;;;10.30
68952;BMP180;56000;51.146;17.112;2023-02-21T08:23:55;99719.60;;;10.40
68952;BMP180;56000;51.146;17.112;2023-02-21T08:26:28;99717.40;;;10.50
68952;BMP180;56000;51.146;17.112;2023-02-21T08:29:01;99722.20;;;10.60
68952;BMP180;56000;51.146;17.112;2023-02-21T08:31:38;99719.00;;;10.60
68952;BMP180;56000;51.146;17.112;2023-02-21T08:34:12;99724.00;;;10.80
68952;BMP180;56000;51.146;17.112;2023-02-21T08:36:46;99726.20;;;10.80
68952;BMP180;56000;51.146;17.112;2023-02-21T08:39:19;99727.60;;;10.80
68952;BMP180;56000;51.146;17.112;2023-02-21T08:41:52;99735.20;;;10.70
68952;BMP180;56000;51.146;17.112;2023-02-21T08:44:25;99729.00;;;10.60
68952;BMP180;56000;51.146;17.112;2023-02-21T08:46:58;99733.60;;;10.50
68952;BMP180;56000;51.146;17.112;2023-02-21T08:49:31;99732.40;;;10.40
68952;BMP180;56000;51.146;17.112;2023-02-21T08:52:04;99726.40;;;10.30
68952;BMP180;56000;51.146;17.112;2023-02-21T08:54:37;99738.40;;;10.40
68952;BMP180;56000;51.146;17.112;2023-02-21T08:57:11;99733.40;;;10.58
68952;BMP180;56000;51.146;17.112;2023-02-21T08:59:44;99727.80;;;11.38
68952;BMP180;56000;51.146;17.112;2023-02-21T09:02:23;99728.60;;;12.00
68952;BMP180;56000;51.146;17.112;2023-02-21T09:04:56;99739.00;;;11.94
68952;BMP180;56000;51.146;17.112;2023-02-21T09:07:30;99725.40;;;11.64
68952;BMP180;56000;51.146;17.112;2023-02-21T09:10:06;99726.40;;;11.40
68952;BMP180;56000;51.146;17.112;2023-02-21T09:12:41;99731.40;;;11.30
68952;BMP180;56000;51.146;17.112;2023-02-21T09:15:16;99734.80;;;11.10
68952;BMP180;56000;51.146;17.112;2023-02-21T09:17:49;99738.40;;;10.90
68952;BMP180;56000;51.146;17.112;2023-02-21T09:20:26;99738.40;;;10.80
68952;BMP180;56000;51.146;17.112;2023-02-21T09:22:59;99744.40;;;10.74
68952;BMP180;56000;51.146;17.112;2023-02-21T09:25:32;99730.60;;;10.70
68952;BMP180;56000;51.146;17.112;2023-02-21T09:28:05;99746.40;;;10.76
68952;BMP180;56000;51.146;17.112;2023-02-21T09:30:38;99742.00;;;10.80
68952;BMP180;56000;51.146;17.112;2023-02-21T09:33:13;99740.80;;;10.90
68952;BMP180;56000;51.146;17.112;2023-02-21T09:35:46;99741.00;;;11.00
68952;BMP180;56000;51.146;17.112;2023-02-21T09:38:21;99750.40;;;11.20
68952;BMP180;56000;51.146;17.112;2023-02-21T09:40:59;99747.20;;;11.30
68952;BMP180;56000;51.146;17.112;2023-02-21T09:43:35;99761.40;;;11.50
68952;BMP180;56000;51.146;17.112;2023-02-21T09:46:12;99756.00;;;11.70
68952;BMP180;56000;51.146;17.112;2023-02-21T09:48:47;99767.80;;;11.80
68952;BMP180;56000;51.146;17.112;2023-02-21T09:51:21;99759.00;;;12.00
68952;BMP180;56000;51.146;17.112;2023-02-21T09:53:58;99768.20;;;12.70
68952;BMP180;56000;51.146;17.112;2023-02-21T09:56:36;99769.20;;;13.00
68952;BMP180;56000;51.146;17.112;2023-02-21T09:59:13;99761.00;;;13.20
68952;BMP180;56000;51.146;17.112;2023-02-21T10:02:00;99763.00;;;13.66
68952;BMP180;56000;51.146;17.112;2023-02-21T10:04:46;99765.20;;;14.22
68952;BMP180;56000;51.146;17.112;2023-02-21T10:07:38;99766.60;;;16.00
68952;BMP180;56000;51.146;17.112;2023-02-21T10:10:15;99767.40;;;17.74
68952;BMP180;56000;51.146;17.112;2023-02-21T10:12:55;99760.40;;;18.72
68952;BMP180;56000;51.146;17.112;2023-02-21T10:15:42;99762.00;;;19.84
68952;BMP180;56000;51.146;17.112;2023-02-21T10:18:30;99753.20;;;19.80
68952;BMP180;56000;51.146;17.112;2023-02-21T10:21:13;99759.40;;;20.04
68952;BMP180;56000;51.146;17.112;2023-02-21T10:23:50;99753.60;;;20.62
68952;BMP180;56000;51.146;17.112;2023-02-21T10:26:30;99765.40;;;20.72
68952;BMP180;56000;51.146;17.112;2023-02-21T10:29:06;99767.40;;;21.24
68952;BMP180;56000;51.146;17.112;2023-02-21T10:31:44;99760.60;;;21.68
68952;BMP180;56000;51.146;17.112;2023-02-21T10:34:25;99763.60;;;21.60
68952;BMP180;56000;51.146;17.112;2023-02-21T10:37:05;99763.40;;;20.90
68952;BMP180;56000;51.146;17.112;2023-02-21T10:39:50;99771.20;;;20.60
68952;BMP180;56000;51.146;17.112;2023-02-21T10:42:33;99768.20;;;20.82
68952;BMP180;56000;51.146;17.112;2023-02-21T10:45:09;99765.80;;;21.10
68952;BMP180;56000;51.146;17.112;2023-02-21T10:47:51;99765.40;;;21.06
68952;BMP180;56000;51.146;17.112;2023-02-21T10:50:42;99777.00;;;19.82
68952;BMP180;56000;51.146;17.112;2023-02-21T10:53:28;99779.80;;;18.98
68952;BMP180;56000;51.146;17.112;2023-02-21T10:56:24;99782.80;;;17.72
68952;BMP180;56000;51.146;17.112;2023-02-21T10:59:03;99788.80;;;16.50
68952;BMP180;56000;51.146;17.112;2023-02-21T11:01:42;99785.40;;;15.68
68952;BMP180;56000;51.146;17.112;2023-02-21T11:04:31;99795.20;;;15.08
68952;BMP180;56000;51.146;17.112;2023-02-21T11:07:09;99803.40;;;14.50
68952;BMP180;56000;51.146;17.112;2023-02-21T11:09:44;99805.80;;;14.10
68952;BMP180;56000;51.146;17.112;2023-02-21T11:12:26;99817.80;;;13.94
68952;BMP180;56000;51.146;17.112;2023-02-21T11:15:21;99811.60;;;13.38
68952;BMP180;56000;51.146;17.112;2023-02-21T11:18:10;99812.20;;;13.10
68952;BMP180;56000;51.146;17.112;2023-02-21T11:20:47;99813.40;;;13.00
68952;BMP180;56000;51.146;17.112;2023-02-21T11:23:28;99830.40;;;12.80
68952;BMP180;56000;51.146;17.112;2023-02-21T11:26:07;99821.60;;;12.60
68952;BMP180;56000;51.146;17.112;2023-02-21T11:28:43;99815.60;;;12.88
68952;BMP180;56000;51.146;17.112;2023-02-21T11:31:26;99809.80;;;15.16
68952;BMP180;56000;51.146;17.112;2023-02-21T11:34:03;99797.60;;;16.16
68952;BMP180;56000;51.146;17.112;2023-02-21T11:36:40;99800.60;;;17.76
68952;BMP180;56000;51.146;17.112;2023-02-21T11:39:21;99805.60;;;18.02
68952;BMP180;56000;51.146;17.112;2023-02-21T11:42:00;99806.20;;;17.06
68952;BMP180;56000;51.146;17.112;2023-02-21T11:44:37;99809.60;;;16.22
68952;BMP180;56000;51.146;17.112;2023-02-21T11:47:19;99804.40;;;15.42
68952;BMP180;56000;51.146;17.112;2023-02-21T11:50:00;99806.60;;;14.90
68952;BMP180;56000;51.146;17.112;2023-02-21T11:52:38;99821.20;;;14.60
68952;BMP180;56000;51.146;17.112;2023-02-21T11:55:18;99826.20;;;14.20
68952;BMP180;56000;51.146;17.112;2023-02-21T11:58:00;99818.20;;;14.06
68952;BMP180;56000;51.146;17.112;2023-02-21T12:00:44;99825.00;;;14.10
68952;BMP180;56000;51.146;17.112;2023-02-21T12:03:56;99827.80;;;14.64
68952;BMP180;56000;51.146;17.112;2023-02-21T12:06:39;99823.20;;;14.50
68952;BMP180;56000;51.146;17.112;2023-02-21T12:09:18;99826.80;;;14.06
68952;BMP180;56000;51.146;17.112;2023-02-21T12:12:05;99836.00;;;13.70
68952;BMP180;56000;51.146;17.112;2023-02-21T12:14:56;99837.20;;;13.40
68952;BMP180;56000;51.146;17.112;2023-02-21T12:18:02;99841.20;;;13.20
68952;BMP180;56000;51.146;17.112;2023-02-21T12:21:03;99836.80;;;13.10
68952;BMP180;56000;51.146;17.112;2023-02-21T12:23:48;99840.80;;;13.00
68952;BMP180;56000;51.146;17.112;2023-02-21T12:26:47;99831.00;;;14.40
68952;BMP180;56000;51.146;17.112;2023-02-21T12:29:40;99832.60;;;14.80
68952;BMP180;56000;51.146;17.112;2023-02-21T12:32:39;99830.00;;;14.80
68952;BMP180;56000;51.146;17.112;2023-02-21T12:38:57;99828.00;;;14.14
68952;BMP180;56000;51.146;17.112;2023-02-21T12:42:01;99823.80;;;14.56
68952;BMP180;56000;51.146;17.112;2023-02-21T12:44:47;99830.00;;;15.90
68952;BMP180;56000;51.146;17.112;2023-02-21T12:47:27;99820.00;;;16.72
68952;BMP180;56000;51.146;17.112;2023-02-21T12:50:08;99821.40;;;17.48
68952;BMP180;56000;51.146;17.112;2023-02-21T12:52:51;99822.80;;;17.30
68952;BMP180;56000;51.146;17.112;2023-02-21T12:55:31;99806.80;;;17.72
68952;BMP180;56000;51.146;17.112;2023-02-21T12:58:13;99806.20;;;19.20
68952;BMP180;56000;51.146;17.112;2023-02-21T13:00:51;99800.20;;;20.60
68952;BMP180;56000;51.146;17.112;2023-02-21T13:03:39;99798.40;;;20.28
68952;BMP180;56000;51.146;17.112;2023-02-21T13:06:20;99799.40;;;19.12
68952;BMP180;56000;51.146;17.112;2023-02-21T13:09:08;99798.00;;;18.14
68952;BMP180;56000;51.146;17.112;2023-02-21T13:11:50;99798.00;;;17.64
68952;BMP180;56000;51.146;17.112;2023-02-21T13:14:32;99807.80;;;17.40
68952;BMP180;56000;51.146;17.112;2023-02-21T13:17:10;99795.40;;;16.94
68952;BMP180;56000;51.146;17.112;2023-02-21T13:19:49;99796.80;;;16.36
68952;BMP180;56000;51.146;17.112;2023-02-21T13:26:36;99801.60;;;15.14
68952;BMP180;56000;51.146;17.112;2023-02-21T13:29:19;99794.60;;;14.70
68952;BMP180;56000;51.146;17.112;2023-02-21T13:32:00;99796.60;;;14.50
68952;BMP180;56000;51.146;17.112;2023-02-21T13:34:40;99805.20;;;14.40
68952;BMP180;56000;51.146;17.112;2023-02-21T13:37:20;99808.60;;;14.40
68952;BMP180;56000;51.146;17.112;2023-02-21T13:39:57;99803.20;;;14.40
68952;BMP180;56000;51.146;17.112;2023-02-21T13:42:39;99800.40;;;14.40
68952;BMP180;56000;51.146;17.112;2023-02-21T13:45:21;99801.20;;;14.44
68952;BMP180;56000;51.146;17.112;2023-02-21T13:48:26;99802.00;;;14.40
68952;BMP180;56000;51.146;17.112;2023-02-21T13:51:00;99807.60;;;14.20
68952;BMP180;56000;51.146;17.112;2023-02-21T13:54:07;99808.80;;;14.00
68952;BMP180;56000;51.146;17.112;2023-02-21T13:56:44;99821.00;;;13.90
68952;BMP180;56000;51.146;17.112;2023-02-21T13:59:36;99818.60;;;13.98
68952;BMP180;56000;51.146;17.112;2023-02-21T14:02:29;99809.60;;;14.10
68952;BMP180;56000;51.146;17.112;2023-02-21T14:05:08;99817.60;;;14.30
68952;BMP180;56000;51.146;17.112;2023-02-21T14:07:55;99818.60;;;14.40
68952;BMP180;56000;51.146;17.112;2023-02-21T14:10:44;99814.80;;;14.50
68952;BMP180;56000;51.146;17.112;2023-02-21T14:13:26;99819.40;;;14.50
68952;BMP180;56000;51.146;17.112;2023-02-21T14:16:14;99822.60;;;14.40
68952;BMP180;56000;51.146;17.112;2023-02-21T14:18:50;99817.20;;;14.40
68952;BMP180;56000;51.146;17.112;2023-02-21T14:21:31;99819.00;;;14.50
68952;BMP180;56000;51.146;17.112;2023-02-21T14:24:14;99820.00;;;14.60
68952;BMP180;56000;51.146;17.112;2023-02-21T14:26:52;99816.20;;;14.60
68952;BMP180;56000;51.146;17.112;2023-02-21T14:29:39;99825.00;;;14.60
68952;BMP180;56000;51.146;17.112;2023-02-21T14:32:30;99828.20;;;14.50
68952;BMP180;56000;51.146;17.112;2023-02-21T14:35:25;99832.40;;;14.42
68952;BMP180;56000;51.146;17.112;2023-02-21T14:38:03;99833.20;;;14.20
68952;BMP180;56000;51.146;17.112;2023-02-21T14:41:00;99844.60;;;14.00
68952;BMP180;56000;51.146;17.112;2023-02-21T14:43:54;99842.00;;;13.80
68952;BMP180;56000;51.146;17.112;2023-02-21T14:46:50;99850.60;;;13.60
68952;BMP180;56000;51.146;17.112;2023-02-21T14:50:17;99851.00;;;13.34
68952;BMP180;56000;51.146;17.112;2023-02-21T14:53:16;99855.00;;;13.00
68952;BMP180;56000;51.146;17.112;2023-02-21T14:56:22;99862.80;;;12.80
68952;BMP180;56000;51.146;17.112;2023-02-21T14:59:17;99864.40;;;12.60
68952;BMP180;56000;51.146;17.112;2023-02-21T15:02:15;99864.20;;;12.40
68952;BMP180;56000;51.146;17.112;2023-02-21T15:04:56;99872.20;;;12.30
68952;BMP180;56000;51.146;17.112;2023-02-21T15:07:54;99865.00;;;12.20
68952;BMP180;56000;51.146;17.112;2023-02-21T15:10:30;99873.80;;;12.02
68952;BMP180;56000;51.146;17.112;2023-02-21T15:13:04;99877.60;;;12.00
68952;BMP180;56000;51.146;17.112;2023-02-21T15:15:40;99877.80;;;11.90
68952;BMP180;56000;51.146;17.112;2023-02-21T15:18:25;99875.00;;;11.90
68952;BMP180;56000;51.146;17.112;2023-02-21T15:21:14;99887.00;;;11.96
68952;BMP180;56000;51.146;17.112;2023-02-21T15:24:01;99873.40;;;12.00
68952;BMP180;56000;51.146;17.112;2023-02-21T15:26:34;99881.20;;;12.00
68952;BMP180;56000;51.146;17.112;2023-02-21T15:29:10;99877.20;;;12.00